sensor_id;sensor_type;location;lat;lon;timestamp;P1;durP1;ratioP1;P2;durP2;ratioP2
1358;SDS011;673;48.098;14.422;2022-11-15T00:02:06;15.60;;;11.70;;
1358;SDS011;673;48.098;14.422;2022-11-15T00:04:34;12.67;;;10.50;;
1358;SDS011;673;48.098;14.422;2022-11-15T00:07:01;12.20;;;9.90;;
1358;SDS011;673;48.098;14.422;2022-11-15T00:09:28;12.93;;;10.60;;
1358;SDS011;673;48.098;14.422;2022-11-15T00:11:55;14.83;;;10.10;;
1358;SDS011;673;48.098;14.422;2022-11-15T00:14:23;14.87;;;10.53;;
1358;SDS011;673;48.098;14.422;2022-11-15T00:16:50;12.73;;;10.33;;
1358;SDS011;673;48.098;14.422;2022-11-15T00:19:17;14.80;;;10.60;;
1358;SDS011;673;48.098;14.422;2022-11-15T00:21:44;15.03;;;10.67;;
1358;SDS011;673;48.098;14.422;2022-11-15T00:24:11;16.40;;;9.93;;
1358;SDS011;673;48.098;14.422;2022-11-15T00:26:38;12.90;;;11.10;;
1358;SDS011;673;48.098;14.422;2022-11-15T00:29:05;16.77;;;10.43;;
1358;SDS011;673;48.098;14.422;2022-11-15T00:31:33;12.50;;;9.97;;
1358;SDS011;673;48.098;14.422;2022-11-15T00:34:00;13.30;;;10.30;;
1358;SDS011;673;48.098;14.422;2022-11-15T00:36:27;13.40;;;10.77;;
1358;SDS011;673;48.098;14.422;2022-11-15T00:38:54;15.33;;;10.30;;
1358;SDS011;673;48.098;14.422;2022-11-15T00:41:21;15.10;;;11.67;;
1358;SDS011;673;48.098;14.422;2022-11-15T00:43:48;12.10;;;10.80;;
1358;SDS011;673;48.098;14.422;2022-11-15T00:46:15;12.23;;;10.50;;
1358;SDS011;673;48.098;14.422;2022-11-15T00:48:43;10.30;;;7.73;;
1358;SDS011;673;48.098;14.422;2022-11-15T00:51:10;10.67;;;8.63;;
1358;SDS011;673;48.098;14.422;2022-11-15T00:53:37;11.23;;;9.80;;
1358;SDS011;673;48.098;14.422;2022-11-15T00:56:04;14.23;;;9.30;;
1358;SDS011;673;48.098;14.422;2022-11-15T00:58:31;12.60;;;9.50;;
1358;SDS011;673;48.098;14.422;2022-11-15T01:01:05;16.30;;;10.17;;
1358;SDS011;673;48.098;14.422;2022-11-15T01:03:33;16.50;;;10.40;;
1358;SDS011;673;48.098;14.422;2022-11-15T01:06:01;14.93;;;10.67;;
1358;SDS011;673;48.098;14.422;2022-11-15T01:08:29;9.83;;;8.80;;
1358;SDS011;673;48.098;14.422;2022-11-15T01:10:59;12.07;;;8.67;;
1358;SDS011;673;48.098;14.422;2022-11-15T01:13:29;13.83;;;9.30;;
1358;SDS011;673;48.098;14.422;2022-11-15T01:15:56;15.57;;;8.77;;
1358;SDS011;673;48.098;14.422;2022-11-15T01:18:23;15.37;;;8.53;;
1358;SDS011;673;48.098;14.422;2022-11-15T01:20:50;11.13;;;9.27;;
1358;SDS011;673;48.098;14.422;2022-11-15T01:23:19;16.03;;;11.40;;
1358;SDS011;673;48.098;14.422;2022-11-15T01:25:46;14.93;;;11.20;;
1358;SDS011;673;48.098;14.422;2022-11-15T01:28:13;14.33;;;9.90;;
1358;SDS011;673;48.098;14.422;2022-11-15T01:30:39;13.17;;;9.80;;
1358;SDS011;673;48.098;14.422;2022-11-15T01:33:06;12.23;;;9.10;;
1358;SDS011;673;48.098;14.422;2022-11-15T01:35:37;10.50;;;8.07;;
1358;SDS011;673;48.098;14.422;2022-11-15T01:38:05;13.73;;;9.80;;
1358;SDS011;673;48.098;14.422;2022-11-15T01:40:33;11.77;;;8.73;;
1358;SDS011;673;48.098;14.422;2022-11-15T01:45:45;14.53;;;8.50;;
1358;SDS011;673;48.098;14.422;2022-11-15T01:48:16;11.93;;;9.10;;
1358;SDS011;673;48.098;14.422;2022-11-15T01:50:43;19.03;;;10.57;;
1358;SDS011;673;48.098;14.422;2022-11-15T01:53:10;14.60;;;10.53;;
1358;SDS011;673;48.098;14.422;2022-11-15T01:55:39;13.50;;;9.30;;
1358;SDS011;673;48.098;14.422;2022-11-15T01:58:06;12.33;;;9.40;;
1358;SDS011;673;48.098;14.422;2022-11-15T02:00:34;17.93;;;9.23;;
1358;SDS011;673;48.098;14.422;2022-11-15T02:03:01;14.33;;;9.20;;
1358;SDS011;673;48.098;14.422;2022-11-15T02:05:28;11.20;;;9.33;;
1358;SDS011;673;48.098;14.422;2022-11-15T02:07:57;12.73;;;9.50;;
1358;SDS011;673;48.098;14.422;2022-11-15T02:10:27;11.90;;;9.10;;
1358;SDS011;673;48.098;14.422;2022-11-15T02:12:55;18.90;;;10.80;;
1358;SDS011;673;48.098;14.422;2022-11-15T02:15:27;12.73;;;8.60;;
1358;SDS011;673;48.098;14.422;2022-11-15T02:18:04;18.40;;;10.60;;
1358;SDS011;673;48.098;14.422;2022-11-15T02:20:41;9.70;;;8.67;;
1358;SDS011;673;48.098;14.422;2022-11-15T02:29:37;12.07;;;9.03;;
1358;SDS011;673;48.098;14.422;2022-11-15T02:32:23;13.20;;;7.90;;
1358;SDS011;673;48.098;14.422;2022-11-15T02:34:58;10.27;;;7.90;;
1358;SDS011;673;48.098;14.422;2022-11-15T02:37:33;10.00;;;7.80;;
1358;SDS011;673;48.098;14.422;2022-11-15T02:40:06;10.30;;;7.70;;
1358;SDS011;673;48.098;14.422;2022-11-15T02:42:39;13.50;;;8.27;;
1358;SDS011;673;48.098;14.422;2022-11-15T02:45:30;10.47;;;8.40;;
1358;SDS011;673;48.098;14.422;2022-11-15T02:48:03;8.60;;;7.27;;
1358;SDS011;673;48.098;14.422;2022-11-15T02:50:32;9.23;;;7.87;;
1358;SDS011;673;48.098;14.422;2022-11-15T02:52:59;12.27;;;8.40;;
1358;SDS011;673;48.098;14.422;2022-11-15T02:55:27;8.90;;;6.43;;
1358;SDS011;673;48.098;14.422;2022-11-15T02:57:59;10.13;;;8.07;;
1358;SDS011;673;48.098;14.422;2022-11-15T03:00:45;13.53;;;7.77;;
1358;SDS011;673;48.098;14.422;2022-11-15T03:03:24;13.00;;;9.37;;
1358;SDS011;673;48.098;14.422;2022-11-15T03:06:09;14.80;;;9.20;;
1358;SDS011;673;48.098;14.422;2022-11-15T03:08:46;13.80;;;9.33;;
1358;SDS011;673;48.098;14.422;2022-11-15T03:11:21;10.83;;;8.30;;
1358;SDS011;673;48.098;14.422;2022-11-15T03:13:53;11.23;;;8.77;;
1358;SDS011;673;48.098;14.422;2022-11-15T03:16:27;13.80;;;9.47;;
1358;SDS011;673;48.098;14.422;2022-11-15T03:19:02;13.20;;;10.83;;
1358;SDS011;673;48.098;14.422;2022-11-15T03:21:34;18.20;;;11.77;;
1358;SDS011;673;48.098;14.422;2022-11-15T03:24:05;21.20;;;13.57;;
1358;SDS011;673;48.098;14.422;2022-11-15T03:26:34;22.30;;;14.00;;
1358;SDS011;673;48.098;14.422;2022-11-15T03:29:06;18.07;;;14.00;;
1358;SDS011;673;48.098;14.422;2022-11-15T03:31:41;19.67;;;14.17;;
1358;SDS011;673;48.098;14.422;2022-11-15T03:34:19;18.00;;;13.50;;
1358;SDS011;673;48.098;14.422;2022-11-15T03:36:50;21.73;;;14.03;;
1358;SDS011;673;48.098;14.422;2022-11-15T03:39:18;23.27;;;13.47;;
1358;SDS011;673;48.098;14.422;2022-11-15T03:41:47;19.50;;;12.73;;
1358;SDS011;673;48.098;14.422;2022-11-15T03:44:20;21.80;;;13.70;;
1358;SDS011;673;48.098;14.422;2022-11-15T03:47:01;21.23;;;14.60;;
1358;SDS011;673;48.098;14.422;2022-11-15T03:49:34;17.30;;;14.10;;
1358;SDS011;673;48.098;14.422;2022-11-15T03:52:04;18.33;;;14.50;;
1358;SDS011;673;48.098;14.422;2022-11-15T03:54:31;17.83;;;12.40;;
1358;SDS011;673;48.098;14.422;2022-11-15T03:56:58;20.83;;;14.30;;
1358;SDS011;673;48.098;14.422;2022-11-15T03:59:25;25.57;;;14.37;;
1358;SDS011;673;48.098;14.422;2022-11-15T04:01:52;21.33;;;13.00;;
1358;SDS011;673;48.098;14.422;2022-11-15T04:04:19;93.00;;;24.23;;
1358;SDS011;673;48.098;14.422;2022-11-15T04:06:48;56.37;;;17.27;;
1358;SDS011;673;48.098;14.422;2022-11-15T04:09:15;91.07;;;18.27;;
1358;SDS011;673;48.098;14.422;2022-11-15T04:11:42;137.13;;;32.03;;
1358;SDS011;673;48.098;14.422;2022-11-15T04:14:09;58.03;;;19.90;;
1358;SDS011;673;48.098;14.422;2022-11-15T04:16:36;32.27;;;14.90;;
1358;SDS011;673;48.098;14.422;2022-11-15T04:19:03;20.10;;;11.67;;
1358;SDS011;673;48.098;14.422;2022-11-15T04:21:48;18.37;;;13.53;;
1358;SDS011;673;48.098;14.422;2022-11-15T04:24:33;19.80;;;13.67;;
1358;SDS011;673;48.098;14.422;2022-11-15T04:27:00;20.13;;;13.67;;
1358;SDS011;673;48.098;14.422;2022-11-15T04:29:27;20.57;;;11.70;;
1358;SDS011;673;48.098;14.422;2022-11-15T04:32:10;13.10;;;11.33;;
1358;SDS011;673;48.098;14.422;2022-11-15T04:34:37;20.17;;;12.83;;
1358;SDS011;673;48.098;14.422;2022-11-15T04:37:06;15.17;;;11.80;;
1358;SDS011;673;48.098;14.422;2022-11-15T04:39:39;14.37;;;11.37;;
1358;SDS011;673;48.098;14.422;2022-11-15T04:42:06;14.10;;;11.37;;
1358;SDS011;673;48.098;14.422;2022-11-15T04:44:34;18.07;;;13.53;;
1358;SDS011;673;48.098;14.422;2022-11-15T04:47:01;18.07;;;13.87;;
1358;SDS011;673;48.098;14.422;2022-11-15T04:49:28;26.83;;;16.47;;
1358;SDS011;673;48.098;14.422;2022-11-15T04:51:55;56.07;;;21.20;;
1358;SDS011;673;48.098;14.422;2022-11-15T04:54:24;43.17;;;19.80;;
1358;SDS011;673;48.098;14.422;2022-11-15T04:56:51;36.83;;;20.40;;
1358;SDS011;673;48.098;14.422;2022-11-15T04:59:18;59.40;;;22.73;;
1358;SDS011;673;48.098;14.422;2022-11-15T05:01:45;121.73;;;35.40;;
1358;SDS011;673;48.098;14.422;2022-11-15T05:04:12;126.83;;;31.13;;
1358;SDS011;673;48.098;14.422;2022-11-15T05:06:47;131.40;;;37.77;;
1358;SDS011;673;48.098;14.422;2022-11-15T05:09:15;106.60;;;32.10;;
1358;SDS011;673;48.098;14.422;2022-11-15T05:11:44;183.23;;;36.80;;
1358;SDS011;673;48.098;14.422;2022-11-15T05:14:11;123.07;;;35.67;;
1358;SDS011;673;48.098;14.422;2022-11-15T05:16:39;78.20;;;28.67;;
1358;SDS011;673;48.098;14.422;2022-11-15T05:19:06;68.80;;;26.73;;
1358;SDS011;673;48.098;14.422;2022-11-15T05:21:33;181.00;;;41.17;;
1358;SDS011;673;48.098;14.422;2022-11-15T05:24:00;147.53;;;38.57;;
1358;SDS011;673;48.098;14.422;2022-11-15T05:26:27;132.63;;;35.50;;
1358;SDS011;673;48.098;14.422;2022-11-15T05:28:56;93.87;;;27.17;;
1358;SDS011;673;48.098;14.422;2022-11-15T05:31:24;92.93;;;33.70;;
1358;SDS011;673;48.098;14.422;2022-11-15T05:33:52;313.50;;;56.67;;
1358;SDS011;673;48.098;14.422;2022-11-15T05:36:22;172.50;;;43.57;;
1358;SDS011;673;48.098;14.422;2022-11-15T05:38:55;86.53;;;29.97;;
1358;SDS011;673;48.098;14.422;2022-11-15T05:41:24;203.40;;;55.30;;
1358;SDS011;673;48.098;14.422;2022-11-15T05:43:57;128.80;;;32.23;;
1358;SDS011;673;48.098;14.422;2022-11-15T05:46:24;89.97;;;27.50;;
1358;SDS011;673;48.098;14.422;2022-11-15T05:48:51;288.87;;;54.07;;
1358;SDS011;673;48.098;14.422;2022-11-15T05:51:19;154.40;;;38.53;;
1358;SDS011;673;48.098;14.422;2022-11-15T05:53:49;146.47;;;35.97;;
1358;SDS011;673;48.098;14.422;2022-11-15T05:56:17;182.87;;;45.07;;
1358;SDS011;673;48.098;14.422;2022-11-15T05:58:44;193.47;;;44.43;;
1358;SDS011;673;48.098;14.422;2022-11-15T06:01:13;224.43;;;54.23;;
1358;SDS011;673;48.098;14.422;2022-11-15T06:03:40;279.07;;;49.00;;
1358;SDS011;673;48.098;14.422;2022-11-15T06:06:07;222.67;;;51.40;;
1358;SDS011;673;48.098;14.422;2022-11-15T06:08:34;135.50;;;34.67;;
1358;SDS011;673;48.098;14.422;2022-11-15T06:11:04;174.10;;;39.73;;
1358;SDS011;673;48.098;14.422;2022-11-15T06:13:32;280.50;;;62.93;;
1358;SDS011;673;48.098;14.422;2022-11-15T06:15:59;268.50;;;50.03;;
1358;SDS011;673;48.098;14.422;2022-11-15T06:18:27;191.20;;;43.17;;
1358;SDS011;673;48.098;14.422;2022-11-15T06:20:58;247.93;;;49.70;;
1358;SDS011;673;48.098;14.422;2022-11-15T06:23:25;161.10;;;38.33;;
1358;SDS011;673;48.098;14.422;2022-11-15T06:25:52;130.20;;;37.43;;
1358;SDS011;673;48.098;14.422;2022-11-15T06:28:19;70.57;;;27.03;;
1358;SDS011;673;48.098;14.422;2022-11-15T06:30:46;310.23;;;54.00;;
1358;SDS011;673;48.098;14.422;2022-11-15T06:33:13;181.40;;;38.57;;
1358;SDS011;673;48.098;14.422;2022-11-15T06:35:41;166.17;;;41.37;;
1358;SDS011;673;48.098;14.422;2022-11-15T06:38:09;105.10;;;32.07;;
1358;SDS011;673;48.098;14.422;2022-11-15T06:40:37;142.47;;;37.77;;
1358;SDS011;673;48.098;14.422;2022-11-15T06:43:05;238.00;;;52.57;;
1358;SDS011;673;48.098;14.422;2022-11-15T06:45:33;223.13;;;46.20;;
1358;SDS011;673;48.098;14.422;2022-11-15T06:48:00;189.30;;;54.40;;
1358;SDS011;673;48.098;14.422;2022-11-15T06:50:27;221.47;;;61.70;;
1358;SDS011;673;48.098;14.422;2022-11-15T06:52:55;282.90;;;85.67;;
1358;SDS011;673;48.098;14.422;2022-11-15T06:55:28;269.90;;;83.53;;
1358;SDS011;673;48.098;14.422;2022-11-15T06:57:55;405.93;;;108.67;;
1358;SDS011;673;48.098;14.422;2022-11-15T07:00:22;385.60;;;98.97;;
1358;SDS011;673;48.098;14.422;2022-11-15T07:02:50;181.57;;;88.70;;
1358;SDS011;673;48.098;14.422;2022-11-15T07:05:17;249.37;;;78.00;;
1358;SDS011;673;48.098;14.422;2022-11-15T07:07:50;125.93;;;38.17;;
1358;SDS011;673;48.098;14.422;2022-11-15T07:10:20;192.47;;;49.70;;
1358;SDS011;673;48.098;14.422;2022-11-15T07:12:49;114.30;;;38.07;;
1358;SDS011;673;48.098;14.422;2022-11-15T07:15:16;271.07;;;50.03;;
1358;SDS011;673;48.098;14.422;2022-11-15T07:17:44;124.07;;;33.27;;
1358;SDS011;673;48.098;14.422;2022-11-15T07:20:11;312.83;;;54.40;;
1358;SDS011;673;48.098;14.422;2022-11-15T07:22:39;337.30;;;56.27;;
1358;SDS011;673;48.098;14.422;2022-11-15T07:25:07;108.13;;;34.30;;
1358;SDS011;673;48.098;14.422;2022-11-15T07:27:36;239.80;;;65.00;;
1358;SDS011;673;48.098;14.422;2022-11-15T07:30:03;200.43;;;62.10;;
1358;SDS011;673;48.098;14.422;2022-11-15T07:32:31;224.03;;;46.50;;
1358;SDS011;673;48.098;14.422;2022-11-15T07:34:58;125.60;;;40.43;;
1358;SDS011;673;48.098;14.422;2022-11-15T07:37:26;252.27;;;53.93;;
1358;SDS011;673;48.098;14.422;2022-11-15T07:39:53;112.27;;;40.20;;
1358;SDS011;673;48.098;14.422;2022-11-15T07:42:20;127.47;;;43.40;;
1358;SDS011;673;48.098;14.422;2022-11-15T07:45:06;167.47;;;36.73;;
1358;SDS011;673;48.098;14.422;2022-11-15T07:47:33;203.17;;;49.37;;
1358;SDS011;673;48.098;14.422;2022-11-15T07:50:00;72.40;;;32.60;;
1358;SDS011;673;48.098;14.422;2022-11-15T07:52:27;70.83;;;27.30;;
1358;SDS011;673;48.098;14.422;2022-11-15T07:54:54;150.63;;;50.80;;
1358;SDS011;673;48.098;14.422;2022-11-15T07:57:21;113.33;;;37.07;;
1358;SDS011;673;48.098;14.422;2022-11-15T07:59:48;153.13;;;35.83;;
1358;SDS011;673;48.098;14.422;2022-11-15T08:02:16;341.57;;;54.37;;
1358;SDS011;673;48.098;14.422;2022-11-15T08:04:43;88.10;;;32.60;;
1358;SDS011;673;48.098;14.422;2022-11-15T08:07:10;144.73;;;35.93;;
1358;SDS011;673;48.098;14.422;2022-11-15T08:09:37;283.00;;;63.13;;
1358;SDS011;673;48.098;14.422;2022-11-15T08:12:04;268.77;;;55.80;;
1358;SDS011;673;48.098;14.422;2022-11-15T08:14:31;89.73;;;26.43;;
1358;SDS011;673;48.098;14.422;2022-11-15T08:16:58;117.87;;;32.33;;
1358;SDS011;673;48.098;14.422;2022-11-15T08:19:27;80.77;;;29.63;;
1358;SDS011;673;48.098;14.422;2022-11-15T08:21:54;106.37;;;28.00;;
1358;SDS011;673;48.098;14.422;2022-11-15T08:24:21;302.90;;;60.60;;
1358;SDS011;673;48.098;14.422;2022-11-15T08:26:49;194.57;;;41.07;;
1358;SDS011;673;48.098;14.422;2022-11-15T08:29:15;179.87;;;39.00;;
1358;SDS011;673;48.098;14.422;2022-11-15T08:31:43;183.97;;;39.83;;
1358;SDS011;673;48.098;14.422;2022-11-15T08:34:10;246.63;;;44.83;;
1358;SDS011;673;48.098;14.422;2022-11-15T08:36:38;149.37;;;34.63;;
1358;SDS011;673;48.098;14.422;2022-11-15T08:39:05;186.80;;;40.07;;
1358;SDS011;673;48.098;14.422;2022-11-15T08:41:33;171.53;;;39.90;;
1358;SDS011;673;48.098;14.422;2022-11-15T08:44:02;77.17;;;29.40;;
1358;SDS011;673;48.098;14.422;2022-11-15T08:46:29;149.80;;;38.90;;
1358;SDS011;673;48.098;14.422;2022-11-15T08:48:55;243.67;;;45.27;;
1358;SDS011;673;48.098;14.422;2022-11-15T08:51:23;116.17;;;26.50;;
1358;SDS011;673;48.098;14.422;2022-11-15T08:53:51;103.17;;;31.50;;
1358;SDS011;673;48.098;14.422;2022-11-15T08:56:18;123.90;;;27.33;;
1358;SDS011;673;48.098;14.422;2022-11-15T08:58:45;129.77;;;30.37;;
1358;SDS011;673;48.098;14.422;2022-11-15T09:01:16;168.13;;;33.23;;
1358;SDS011;673;48.098;14.422;2022-11-15T09:03:45;171.07;;;38.23;;
1358;SDS011;673;48.098;14.422;2022-11-15T09:06:12;220.17;;;44.07;;
1358;SDS011;673;48.098;14.422;2022-11-15T09:08:40;139.30;;;30.70;;
1358;SDS011;673;48.098;14.422;2022-11-15T09:11:09;221.70;;;40.67;;
1358;SDS011;673;48.098;14.422;2022-11-15T09:13:37;282.50;;;50.40;;
1358;SDS011;673;48.098;14.422;2022-11-15T09:16:04;336.03;;;63.10;;
1358;SDS011;673;48.098;14.422;2022-11-15T09:18:31;74.37;;;21.77;;
1358;SDS011;673;48.098;14.422;2022-11-15T09:20:59;80.63;;;25.47;;
1358;SDS011;673;48.098;14.422;2022-11-15T09:23:27;165.87;;;34.30;;
1358;SDS011;673;48.098;14.422;2022-11-15T09:25:58;279.83;;;51.43;;
1358;SDS011;673;48.098;14.422;2022-11-15T09:28:27;172.23;;;36.10;;
1358;SDS011;673;48.098;14.422;2022-11-15T09:30:55;168.00;;;33.07;;
1358;SDS011;673;48.098;14.422;2022-11-15T09:33:25;61.83;;;25.87;;
1358;SDS011;673;48.098;14.422;2022-11-15T09:35:52;436.00;;;68.80;;
1358;SDS011;673;48.098;14.422;2022-11-15T09:38:19;84.13;;;25.23;;
1358;SDS011;673;48.098;14.422;2022-11-15T09:40:47;63.03;;;20.53;;
1358;SDS011;673;48.098;14.422;2022-11-15T09:43:26;64.53;;;24.00;;
1358;SDS011;673;48.098;14.422;2022-11-15T09:46:06;45.47;;;19.73;;
1358;SDS011;673;48.098;14.422;2022-11-15T09:48:47;70.67;;;21.60;;
1358;SDS011;673;48.098;14.422;2022-11-15T09:51:21;52.27;;;19.83;;
1358;SDS011;673;48.098;14.422;2022-11-15T09:53:55;87.93;;;26.23;;
1358;SDS011;673;48.098;14.422;2022-11-15T09:56:30;101.83;;;26.13;;
1358;SDS011;673;48.098;14.422;2022-11-15T09:59:05;143.33;;;31.13;;
1358;SDS011;673;48.098;14.422;2022-11-15T10:01:51;70.40;;;22.83;;
1358;SDS011;673;48.098;14.422;2022-11-15T10:04:25;39.07;;;20.57;;
1358;SDS011;673;48.098;14.422;2022-11-15T10:06:54;77.50;;;30.20;;
1358;SDS011;673;48.098;14.422;2022-11-15T10:09:28;108.43;;;28.63;;
1358;SDS011;673;48.098;14.422;2022-11-15T10:12:02;86.17;;;28.53;;
1358;SDS011;673;48.098;14.422;2022-11-15T10:14:30;70.63;;;24.27;;
1358;SDS011;673;48.098;14.422;2022-11-15T10:17:06;93.10;;;25.37;;
1358;SDS011;673;48.098;14.422;2022-11-15T10:20:09;94.07;;;26.23;;
1358;SDS011;673;48.098;14.422;2022-11-15T10:22:41;73.77;;;25.17;;
1358;SDS011;673;48.098;14.422;2022-11-15T10:25:16;54.30;;;18.50;;
1358;SDS011;673;48.098;14.422;2022-11-15T10:27:48;83.63;;;21.93;;
1358;SDS011;673;48.098;14.422;2022-11-15T10:30:21;92.63;;;23.90;;
1358;SDS011;673;48.098;14.422;2022-11-15T10:32:48;48.33;;;17.63;;
1358;SDS011;673;48.098;14.422;2022-11-15T10:35:19;161.67;;;28.67;;
1358;SDS011;673;48.098;14.422;2022-11-15T10:37:48;55.60;;;19.40;;
1358;SDS011;673;48.098;14.422;2022-11-15T10:40:17;112.13;;;21.67;;
1358;SDS011;673;48.098;14.422;2022-11-15T10:42:46;73.13;;;20.80;;
1358;SDS011;673;48.098;14.422;2022-11-15T10:45:25;81.67;;;21.57;;
1358;SDS011;673;48.098;14.422;2022-11-15T10:47:55;55.20;;;19.47;;
1358;SDS011;673;48.098;14.422;2022-11-15T10:50:49;89.47;;;22.60;;
1358;SDS011;673;48.098;14.422;2022-11-15T10:53:20;54.70;;;15.40;;
1358;SDS011;673;48.098;14.422;2022-11-15T10:55:55;80.90;;;23.03;;
1358;SDS011;673;48.098;14.422;2022-11-15T10:58:29;33.53;;;14.17;;
1358;SDS011;673;48.098;14.422;2022-11-15T11:01:09;42.13;;;17.13;;
1358;SDS011;673;48.098;14.422;2022-11-15T11:03:39;62.23;;;17.40;;
1358;SDS011;673;48.098;14.422;2022-11-15T11:06:08;37.00;;;20.20;;
1358;SDS011;673;48.098;14.422;2022-11-15T11:08:37;50.60;;;16.87;;
1358;SDS011;673;48.098;14.422;2022-11-15T11:11:04;61.73;;;17.70;;
1358;SDS011;673;48.098;14.422;2022-11-15T11:13:33;33.27;;;15.40;;
1358;SDS011;673;48.098;14.422;2022-11-15T11:16:16;27.47;;;16.13;;
1358;SDS011;673;48.098;14.422;2022-11-15T11:18:49;24.70;;;13.33;;
1358;SDS011;673;48.098;14.422;2022-11-15T11:21:25;32.70;;;15.40;;
1358;SDS011;673;48.098;14.422;2022-11-15T11:23:58;39.90;;;16.57;;
1358;SDS011;673;48.098;14.422;2022-11-15T11:26:33;30.77;;;15.50;;
1358;SDS011;673;48.098;14.422;2022-11-15T11:29:11;30.53;;;13.53;;
1358;SDS011;673;48.098;14.422;2022-11-15T11:31:53;29.83;;;16.07;;
1358;SDS011;673;48.098;14.422;2022-11-15T11:34:29;31.47;;;14.60;;
1358;SDS011;673;48.098;14.422;2022-11-15T11:37:09;85.40;;;20.33;;
1358;SDS011;673;48.098;14.422;2022-11-15T11:39:42;30.53;;;15.23;;
1358;SDS011;673;48.098;14.422;2022-11-15T11:42:23;40.10;;;14.50;;
1358;SDS011;673;48.098;14.422;2022-11-15T11:44:57;41.50;;;16.27;;
1358;SDS011;673;48.098;14.422;2022-11-15T11:47:35;32.67;;;14.67;;
1358;SDS011;673;48.098;14.422;2022-11-15T11:50:10;29.13;;;13.77;;
1358;SDS011;673;48.098;14.422;2022-11-15T11:52:41;28.47;;;13.80;;
1358;SDS011;673;48.098;14.422;2022-11-15T11:55:14;23.90;;;12.93;;
1358;SDS011;673;48.098;14.422;2022-11-15T11:57:46;25.63;;;14.90;;
1358;SDS011;673;48.098;14.422;2022-11-15T12:00:18;21.80;;;13.40;;
1358;SDS011;673;48.098;14.422;2022-11-15T12:02:49;23.57;;;14.07;;
1358;SDS011;673;48.098;14.422;2022-11-15T12:05:28;21.90;;;13.97;;
1358;SDS011;673;48.098;14.422;2022-11-15T12:07:59;20.80;;;12.73;;
1358;SDS011;673;48.098;14.422;2022-11-15T12:10:30;22.63;;;14.40;;
1358;SDS011;673;48.098;14.422;2022-11-15T12:13:02;33.60;;;15.87;;
1358;SDS011;673;48.098;14.422;2022-11-15T12:15:35;28.20;;;16.40;;
1358;SDS011;673;48.098;14.422;2022-11-15T12:18:10;32.60;;;15.80;;
1358;SDS011;673;48.098;14.422;2022-11-15T12:20:41;32.47;;;15.40;;
1358;SDS011;673;48.098;14.422;2022-11-15T12:23:19;36.77;;;17.77;;
1358;SDS011;673;48.098;14.422;2022-11-15T12:25:50;44.47;;;16.17;;
1358;SDS011;673;48.098;14.422;2022-11-15T12:28:22;32.00;;;15.13;;
1358;SDS011;673;48.098;14.422;2022-11-15T12:30:59;27.07;;;15.33;;
1358;SDS011;673;48.098;14.422;2022-11-15T12:33:36;28.73;;;16.63;;
1358;SDS011;673;48.098;14.422;2022-11-15T12:36:09;56.63;;;17.80;;
1358;SDS011;673;48.098;14.422;2022-11-15T12:41:23;23.93;;;14.73;;
1358;SDS011;673;48.098;14.422;2022-11-15T12:43:52;28.77;;;14.97;;
1358;SDS011;673;48.098;14.422;2022-11-15T12:46:20;30.93;;;13.37;;
1358;SDS011;673;48.098;14.422;2022-11-15T12:48:56;25.73;;;13.87;;
1358;SDS011;673;48.098;14.422;2022-11-15T12:54:50;18.23;;;12.10;;
1358;SDS011;673;48.098;14.422;2022-11-15T12:57:29;25.30;;;13.77;;
1358;SDS011;673;48.098;14.422;2022-11-15T12:59:58;21.47;;;11.57;;
1358;SDS011;673;48.098;14.422;2022-11-15T13:02:29;21.50;;;13.20;;
1358;SDS011;673;48.098;14.422;2022-11-15T13:08:02;22.90;;;12.70;;
1358;SDS011;673;48.098;14.422;2022-11-15T13:10:30;21.90;;;12.80;;
1358;SDS011;673;48.098;14.422;2022-11-15T13:12:59;22.47;;;13.20;;
1358;SDS011;673;48.098;14.422;2022-11-15T13:15:31;24.60;;;15.20;;
1358;SDS011;673;48.098;14.422;2022-11-15T13:18:26;20.20;;;11.40;;
1358;SDS011;673;48.098;14.422;2022-11-15T13:21:02;16.20;;;11.17;;
1358;SDS011;673;48.098;14.422;2022-11-15T13:23:54;18.97;;;13.33;;
1358;SDS011;673;48.098;14.422;2022-11-15T13:26:21;23.00;;;13.60;;
1358;SDS011;673;48.098;14.422;2022-11-15T13:28:49;24.70;;;13.70;;
1358;SDS011;673;48.098;14.422;2022-11-15T13:31:23;18.67;;;11.60;;
1358;SDS011;673;48.098;14.422;2022-11-15T13:33:52;34.83;;;15.03;;
1358;SDS011;673;48.098;14.422;2022-11-15T13:36:22;23.63;;;14.33;;
1358;SDS011;673;48.098;14.422;2022-11-15T13:38:57;30.37;;;18.20;;
1358;SDS011;673;48.098;14.422;2022-11-15T13:41:26;23.30;;;13.73;;
1358;SDS011;673;48.098;14.422;2022-11-15T13:43:54;26.90;;;13.93;;
1358;SDS011;673;48.098;14.422;2022-11-15T13:46:23;25.33;;;13.00;;
1358;SDS011;673;48.098;14.422;2022-11-15T13:48:52;17.60;;;11.90;;
1358;SDS011;673;48.098;14.422;2022-11-15T13:51:23;19.97;;;13.03;;
1358;SDS011;673;48.098;14.422;2022-11-15T13:54:01;23.83;;;11.90;;
1358;SDS011;673;48.098;14.422;2022-11-15T13:56:36;28.30;;;12.93;;
1358;SDS011;673;48.098;14.422;2022-11-15T13:59:08;24.30;;;13.50;;
1358;SDS011;673;48.098;14.422;2022-11-15T14:01:36;24.17;;;13.60;;
1358;SDS011;673;48.098;14.422;2022-11-15T14:04:10;28.23;;;13.30;;
1358;SDS011;673;48.098;14.422;2022-11-15T14:06:43;21.23;;;13.93;;
1358;SDS011;673;48.098;14.422;2022-11-15T14:09:29;23.10;;;13.63;;
1358;SDS011;673;48.098;14.422;2022-11-15T14:12:01;26.53;;;12.43;;
1358;SDS011;673;48.098;14.422;2022-11-15T14:14:48;25.30;;;13.93;;
1358;SDS011;673;48.098;14.422;2022-11-15T14:17:18;24.93;;;13.77;;
1358;SDS011;673;48.098;14.422;2022-11-15T14:19:48;25.37;;;14.53;;
1358;SDS011;673;48.098;14.422;2022-11-15T14:22:20;25.17;;;14.40;;
1358;SDS011;673;48.098;14.422;2022-11-15T14:27:43;36.93;;;15.10;;
1358;SDS011;673;48.098;14.422;2022-11-15T14:30:32;22.43;;;13.33;;
1358;SDS011;673;48.098;14.422;2022-11-15T14:32:59;43.43;;;14.90;;
1358;SDS011;673;48.098;14.422;2022-11-15T14:35:26;29.27;;;13.47;;
1358;SDS011;673;48.098;14.422;2022-11-15T14:37:53;21.63;;;15.47;;
1358;SDS011;673;48.098;14.422;2022-11-15T14:40:20;36.30;;;15.33;;
1358;SDS011;673;48.098;14.422;2022-11-15T14:42:48;27.40;;;13.80;;
1358;SDS011;673;48.098;14.422;2022-11-15T14:45:17;22.90;;;14.70;;
1358;SDS011;673;48.098;14.422;2022-11-15T14:47:46;24.50;;;12.27;;
1358;SDS011;673;48.098;14.422;2022-11-15T14:50:14;23.63;;;13.60;;
1358;SDS011;673;48.098;14.422;2022-11-15T14:52:43;34.10;;;13.70;;
1358;SDS011;673;48.098;14.422;2022-11-15T14:55:15;56.80;;;17.73;;
1358;SDS011;673;48.098;14.422;2022-11-15T14:57:45;31.97;;;15.10;;
1358;SDS011;673;48.098;14.422;2022-11-15T15:00:13;39.17;;;16.13;;
1358;SDS011;673;48.098;14.422;2022-11-15T15:02:40;37.87;;;14.77;;
1358;SDS011;673;48.098;14.422;2022-11-15T15:05:16;45.97;;;15.30;;
1358;SDS011;673;48.098;14.422;2022-11-15T15:07:44;35.23;;;14.60;;
1358;SDS011;673;48.098;14.422;2022-11-15T15:10:12;39.57;;;15.60;;
1358;SDS011;673;48.098;14.422;2022-11-15T15:12:40;31.87;;;15.67;;
1358;SDS011;673;48.098;14.422;2022-11-15T15:15:11;85.70;;;35.57;;
1358;SDS011;673;48.098;14.422;2022-11-15T15:17:40;28.13;;;19.63;;
1358;SDS011;673;48.098;14.422;2022-11-15T15:20:07;33.27;;;15.77;;
1358;SDS011;673;48.098;14.422;2022-11-15T15:22:37;52.30;;;16.53;;
1358;SDS011;673;48.098;14.422;2022-11-15T15:25:13;45.87;;;17.40;;
1358;SDS011;673;48.098;14.422;2022-11-15T15:27:47;39.23;;;17.07;;